createdAt,value
2022-12-22T00:02:22.706Z,-0.26
2022-12-22T00:04:49.813Z,-0.25
2022-12-22T00:07:16.482Z,-0.18
2022-12-22T00:09:43.185Z,-0.35
2022-12-22T00:12:11.883Z,-0.11
2022-12-22T00:14:38.504Z,-0.19
2022-12-22T00:17:25.261Z,-0.30
2022-12-22T00:19:51.859Z,-0.47
2022-12-22T00:22:24.175Z,-0.21
2022-12-22T00:24:50.792Z,0.04
2022-12-22T00:27:26.081Z,-0.27
2022-12-22T00:29:52.828Z,-0.26
2022-12-22T00:32:19.597Z,-0.21
2022-12-22T00:34:46.267Z,-0.18
2022-12-22T00:37:13.605Z,-0.27
2022-12-22T00:39:40.177Z,0.04
2022-12-22T00:42:06.749Z,-0.30
2022-12-22T00:44:33.460Z,-0.17
2022-12-22T00:47:00.281Z,-0.16
2022-12-22T00:49:30.269Z,-0.32
2022-12-22T00:51:57.013Z,-0.45
2022-12-22T00:54:23.611Z,-0.28
2022-12-22T00:56:50.190Z,-0.32
2022-12-22T00:59:16.895Z,-0.33
2022-12-22T01:01:43.723Z,-0.19
2022-12-22T01:04:10.890Z,-0.37
2022-12-22T01:06:37.481Z,-0.44
2022-12-22T01:09:05.609Z,-0.61
2022-12-22T01:11:33.468Z,-0.72
2022-12-22T01:14:00.226Z,-0.28
2022-12-22T01:16:26.873Z,-0.24
2022-12-22T01:18:53.510Z,-0.27
2022-12-22T01:21:20.841Z,-0.39
2022-12-22T01:23:47.456Z,-0.50
2022-12-22T01:26:14.060Z,-0.35
2022-12-22T01:28:40.700Z,-0.49
2022-12-22T01:31:31.814Z,-0.44
2022-12-22T01:33:58.404Z,-0.09
2022-12-22T01:36:25.091Z,-0.22
2022-12-22T01:38:51.684Z,-0.17
2022-12-22T01:41:20.574Z,-0.47
2022-12-22T01:43:47.658Z,-0.19
2022-12-22T01:46:25.539Z,-0.37
2022-12-22T01:48:52.168Z,-0.56
2022-12-22T01:51:26.750Z,-0.50
2022-12-22T01:53:55.113Z,-0.48
2022-12-22T01:56:22.127Z,-0.29
2022-12-22T01:58:53.998Z,-0.45
2022-12-22T02:01:20.740Z,-0.31
2022-12-22T02:03:47.399Z,-0.42
2022-12-22T02:06:31.801Z,-0.24
2022-12-22T02:09:21.245Z,-0.36
2022-12-22T02:12:05.369Z,-0.40
2022-12-22T02:14:37.790Z,-0.13
2022-12-22T02:17:27.228Z,-0.38
2022-12-22T02:20:08.945Z,-0.46
2022-12-22T02:22:46.517Z,-0.39
2022-12-22T02:25:24.623Z,-0.25
2022-12-22T02:27:54.410Z,-0.37
2022-12-22T02:30:21.147Z,-0.35
2022-12-22T02:32:48.122Z,-0.06
2022-12-22T02:35:16.576Z,-0.12
2022-12-22T02:38:24.683Z,0.36
2022-12-22T02:40:59.723Z,0.27
2022-12-22T02:43:53.909Z,-0.28
2022-12-22T02:46:41.550Z,-0.19
2022-12-22T02:49:25.913Z,-0.18
2022-12-22T02:52:09.337Z,0.01
2022-12-22T02:54:36.369Z,-0.01
2022-12-22T02:57:06.838Z,-0.15
2022-12-22T02:59:33.489Z,-0.04
2022-12-22T03:02:00.292Z,0.23
2022-12-22T03:04:27.034Z,0.18
2022-12-22T03:06:53.663Z,0.13
2022-12-22T03:09:20.265Z,0.76
2022-12-22T03:11:46.842Z,1.57
2022-12-22T03:14:13.481Z,0.95
2022-12-22T03:16:40.163Z,0.64
2022-12-22T03:19:06.772Z,0.43
2022-12-22T03:21:33.419Z,0.15
2022-12-22T03:24:00.069Z,-0.17
2022-12-22T03:26:26.803Z,-0.10
2022-12-22T03:28:53.593Z,-0.14
2022-12-22T03:31:20.319Z,-0.14
2022-12-22T03:33:47.525Z,-0.19
2022-12-22T03:36:14.130Z,-0.19
2022-12-22T03:38:40.768Z,0.01
2022-12-22T03:41:07.365Z,0.17
2022-12-22T03:43:33.932Z,0.08
2022-12-22T03:46:01.780Z,0.18
2022-12-22T03:48:29.241Z,0.40
2022-12-22T03:50:55.861Z,0.10
2022-12-22T03:53:22.562Z,-0.02
2022-12-22T03:55:49.140Z,-0.11
2022-12-22T03:58:15.726Z,-0.21
2022-12-22T04:00:42.419Z,-0.21
2022-12-22T04:03:09.155Z,-0.18
2022-12-22T04:05:35.881Z,0.08
2022-12-22T04:08:02.463Z,0.02
2022-12-22T04:10:29.093Z,-0.06
2022-12-22T04:12:55.727Z,0.11
2022-12-22T04:15:31.373Z,0.14
2022-12-22T04:17:59.213Z,0.21
2022-12-22T04:20:27.633Z,0.57
2022-12-22T04:22:55.163Z,0.40
2022-12-22T04:25:22.853Z,0.28
2022-12-22T04:27:49.470Z,0.09
2022-12-22T04:30:16.517Z,0.12
2022-12-22T04:32:44.009Z,-0.02
2022-12-22T04:35:11.806Z,-0.40
2022-12-22T04:37:38.417Z,0.87
2022-12-22T04:40:05.769Z,0.86
2022-12-22T04:42:32.345Z,0.01
2022-12-22T04:44:58.966Z,-0.26
2022-12-22T04:47:25.534Z,-0.10
2022-12-22T04:49:52.171Z,-0.18
2022-12-22T04:52:18.766Z,0.55
2022-12-22T04:54:45.355Z,0.48
2022-12-22T04:57:12.109Z,0.99
2022-12-22T04:59:38.796Z,0.79
2022-12-22T05:02:05.530Z,0.45
2022-12-22T05:04:32.330Z,0.39
2022-12-22T05:06:59.053Z,0.36
2022-12-22T05:09:25.680Z,0.49
2022-12-22T05:11:52.269Z,0.15
2022-12-22T05:14:18.884Z,0.51
2022-12-22T05:16:45.528Z,0.50
2022-12-22T05:19:12.253Z,0.90
2022-12-22T05:21:38.942Z,1.19
2022-12-22T05:24:06.729Z,0.82
2022-12-22T05:26:33.419Z,0.17
2022-12-22T05:29:00.127Z,-0.35
2022-12-22T05:31:26.839Z,-0.61
2022-12-22T05:33:53.550Z,-0.65
2022-12-22T05:36:20.173Z,-0.67
2022-12-22T05:38:46.791Z,-0.36
2022-12-22T05:41:13.547Z,-0.34
2022-12-22T05:43:40.226Z,-0.04
2022-12-22T05:46:09.770Z,0.91
2022-12-22T05:48:38.864Z,1.25
2022-12-22T05:51:09.694Z,0.83
2022-12-22T05:53:37.435Z,0.40
2022-12-22T05:56:04.552Z,0.92
2022-12-22T05:58:31.148Z,0.86
2022-12-22T06:00:58.446Z,0.99
2022-12-22T06:03:26.809Z,0.47
2022-12-22T06:05:54.350Z,0.64
2022-12-22T06:08:21.135Z,0.44
2022-12-22T06:10:48.019Z,0.29
2022-12-22T06:13:14.889Z,-0.10
2022-12-22T06:15:41.573Z,-0.03
2022-12-22T06:18:08.207Z,0.36
2022-12-22T06:20:34.875Z,0.52
2022-12-22T06:23:01.486Z,0.52
2022-12-22T06:25:28.116Z,0.98
2022-12-22T06:27:54.749Z,1.09
2022-12-22T06:30:24.527Z,0.89
2022-12-22T06:32:54.082Z,0.50
2022-12-22T06:35:20.657Z,0.54
2022-12-22T06:37:47.251Z,0.54
2022-12-22T06:40:14.138Z,0.51
2022-12-22T06:42:40.776Z,0.48
2022-12-22T06:45:07.916Z,0.38
2022-12-22T06:47:34.504Z,0.10
2022-12-22T06:50:01.102Z,-0.01
2022-12-22T06:52:27.684Z,0.07
2022-12-22T06:54:54.278Z,0.56
2022-12-22T06:57:20.856Z,0.28
2022-12-22T06:59:50.900Z,0.14
2022-12-22T07:02:20.471Z,0.14
2022-12-22T07:04:47.243Z,0.20
2022-12-22T07:07:13.835Z,0.08
2022-12-22T07:09:40.455Z,0.24
2022-12-22T07:12:07.318Z,0.24
2022-12-22T07:14:33.927Z,0.54
2022-12-22T07:17:00.511Z,0.14
2022-12-22T07:19:27.211Z,0.22
2022-12-22T07:21:53.829Z,0.03
2022-12-22T07:24:20.488Z,-0.23
2022-12-22T07:26:47.081Z,-0.43
2022-12-22T07:29:13.667Z,0.01
2022-12-22T07:31:40.357Z,-0.23
2022-12-22T07:34:06.994Z,0.25
2022-12-22T07:36:33.684Z,-0.11
2022-12-22T07:39:00.364Z,-0.30
2022-12-22T07:41:26.976Z,0.09
2022-12-22T07:43:55.085Z,0.37
2022-12-22T07:46:23.473Z,0.33
2022-12-22T07:48:50.197Z,0.96
2022-12-22T07:51:16.795Z,0.85
2022-12-22T07:53:43.413Z,0.63
2022-12-22T07:56:10.084Z,1.14
2022-12-22T07:58:36.750Z,1.10
2022-12-22T08:01:03.386Z,-0.04
2022-12-22T08:03:30.118Z,-0.20
2022-12-22T08:05:56.763Z,0.10
2022-12-22T08:08:23.359Z,0.34
2022-12-22T08:10:50.022Z,0.82
2022-12-22T08:13:16.808Z,0.76
2022-12-22T08:15:43.499Z,0.77
2022-12-22T08:18:10.183Z,1.24
2022-12-22T08:20:36.847Z,1.54
2022-12-22T08:23:03.479Z,1.65
2022-12-22T08:25:32.351Z,1.59
2022-12-22T08:27:59.963Z,1.12
2022-12-22T08:30:27.486Z,1.28
2022-12-22T08:32:54.082Z,0.74
2022-12-22T08:35:20.835Z,0.43
2022-12-22T08:37:48.746Z,1.10
2022-12-22T08:40:21.834Z,0.99
2022-12-22T08:43:00.256Z,0.32
2022-12-22T08:45:26.833Z,0.86
2022-12-22T08:47:53.822Z,0.10
2022-12-22T08:50:20.442Z,0.45
2022-12-22T08:52:47.032Z,0.80
2022-12-22T08:55:13.630Z,1.08
2022-12-22T08:57:40.373Z,1.10
2022-12-22T09:00:09.555Z,0.72
2022-12-22T09:02:36.823Z,0.58
2022-12-22T09:05:03.691Z,0.80
2022-12-22T09:07:30.387Z,0.73
2022-12-22T09:09:56.986Z,0.52
2022-12-22T09:12:23.581Z,0.97
2022-12-22T09:14:50.198Z,1.14
2022-12-22T09:17:16.838Z,1.25
2022-12-22T09:19:43.450Z,1.16
2022-12-22T09:22:10.132Z,1.17
2022-12-22T09:24:36.708Z,1.05
2022-12-22T09:27:03.483Z,0.78
2022-12-22T09:29:30.160Z,0.58
2022-12-22T09:31:56.820Z,1.20
2022-12-22T09:34:23.509Z,1.33
2022-12-22T09:36:50.115Z,1.61
2022-12-22T09:39:16.750Z,1.29
2022-12-22T09:41:46.793Z,0.87
2022-12-22T09:44:22.849Z,0.75
2022-12-22T09:46:50.730Z,0.78
2022-12-22T09:49:19.175Z,1.39
2022-12-22T09:52:05.111Z,1.17
2022-12-22T09:54:31.854Z,1.04
2022-12-22T09:56:58.745Z,1.02
2022-12-22T09:59:28.695Z,0.70
2022-12-22T10:01:55.408Z,0.98
2022-12-22T10:04:53.175Z,1.01
2022-12-22T10:07:28.442Z,0.80
2022-12-22T10:09:55.099Z,0.87
2022-12-22T10:12:24.836Z,1.06
2022-12-22T10:14:53.068Z,0.95
2022-12-22T10:17:33.345Z,1.13
2022-12-22T10:20:21.669Z,1.21
2022-12-22T10:22:49.280Z,1.59
2022-12-22T10:25:52.417Z,1.12
2022-12-22T10:28:30.082Z,0.62
2022-12-22T10:31:17.489Z,0.80
2022-12-22T10:33:47.555Z,0.59
2022-12-22T10:36:21.728Z,0.77
2022-12-22T10:38:54.138Z,1.27
2022-12-22T10:41:23.721Z,0.78
2022-12-22T10:43:55.711Z,1.10
2022-12-22T10:46:35.963Z,1.56
2022-12-22T10:49:15.597Z,1.95
2022-12-22T10:51:45.871Z,1.51
2022-12-22T10:54:48.009Z,1.03
2022-12-22T10:57:14.615Z,0.96
2022-12-22T10:59:59.454Z,1.66
2022-12-22T11:02:35.574Z,1.72
2022-12-22T11:05:08.422Z,2.02
2022-12-22T11:07:46.427Z,2.00
2022-12-22T11:10:15.936Z,1.87
2022-12-22T11:12:45.044Z,2.35
2022-12-22T11:15:49.608Z,1.87
2022-12-22T11:18:18.677Z,1.80
2022-12-22T11:20:50.803Z,2.22
2022-12-22T11:23:35.248Z,2.07
2022-12-22T11:26:04.410Z,2.26
2022-12-22T11:28:46.051Z,2.11
2022-12-22T11:31:24.193Z,2.31
2022-12-22T11:33:53.360Z,2.24
2022-12-22T11:36:23.867Z,2.35
2022-12-22T11:39:00.934Z,1.86
2022-12-22T11:41:33.016Z,1.47
2022-12-22T11:44:14.892Z,2.00
2022-12-22T11:46:54.709Z,2.36
2022-12-22T11:49:32.941Z,2.63
2022-12-22T11:52:28.152Z,2.72
2022-12-22T11:55:03.731Z,2.77
2022-12-22T11:58:08.839Z,1.44
2022-12-22T12:01:13.103Z,1.03
2022-12-22T12:04:08.020Z,1.05
2022-12-22T12:07:14.245Z,1.31
2022-12-22T12:09:46.739Z,1.99
2022-12-22T12:12:25.181Z,2.36
2022-12-22T12:15:29.063Z,2.20
2022-12-22T12:18:12.594Z,1.87
2022-12-22T12:20:48.227Z,1.46
2022-12-22T12:23:28.042Z,1.78
2022-12-22T12:25:54.588Z,1.79
2022-12-22T12:28:38.444Z,1.37
2022-12-22T12:31:07.535Z,1.87
2022-12-22T12:33:43.879Z,2.53
2022-12-22T12:36:24.091Z,2.53
2022-12-22T12:39:28.889Z,2.74
2022-12-22T12:42:32.745Z,2.70
2022-12-22T12:44:59.812Z,2.83
2022-12-22T12:47:31.968Z,2.24
2022-12-22T12:50:31.511Z,1.87
2022-12-22T12:52:58.447Z,2.17
2022-12-22T12:55:32.656Z,1.90
2022-12-22T12:58:02.479Z,1.83
2022-12-22T13:00:31.857Z,1.95
2022-12-22T13:03:00.730Z,1.48
2022-12-22T13:05:29.522Z,1.81
2022-12-22T13:08:18.791Z,2.02
2022-12-22T13:10:54.243Z,1.96
2022-12-22T13:13:23.619Z,1.89
2022-12-22T13:15:59.450Z,2.45
2022-12-22T13:18:26.164Z,2.15
2022-12-22T13:21:51.672Z,2.31
2022-12-22T13:24:28.626Z,2.61
2022-12-22T13:27:02.068Z,2.28
2022-12-22T13:29:40.115Z,1.88
2022-12-22T13:32:24.573Z,1.96
2022-12-22T13:35:28.993Z,2.35
2022-12-22T13:37:44.549Z,1.89
2022-12-22T13:40:20.657Z,1.75
2022-12-22T13:42:56.475Z,2.24
2022-12-22T13:45:45.153Z,3.12
2022-12-22T13:48:17.396Z,3.08
2022-12-22T13:50:48.951Z,3.02
2022-12-22T13:53:50.000Z,2.59
2022-12-22T13:56:20.814Z,2.93
2022-12-22T13:58:53.243Z,2.33
2022-12-22T14:01:20.357Z,2.22
2022-12-22T14:04:03.204Z,2.96
2022-12-22T14:06:33.577Z,2.25
2022-12-22T14:09:29.508Z,2.37
2022-12-22T14:12:02.012Z,2.63
2022-12-22T14:14:34.183Z,1.77
2022-12-22T14:17:01.843Z,1.81
2022-12-22T14:19:34.999Z,2.46
2022-12-22T14:22:15.489Z,1.98
2022-12-22T14:24:46.287Z,2.09
2022-12-22T14:27:39.034Z,1.76
2022-12-22T14:30:15.744Z,1.35
2022-12-22T14:32:55.201Z,2.25
2022-12-22T14:35:22.322Z,1.28
2022-12-22T14:37:55.241Z,1.55
2022-12-22T14:40:37.870Z,2.10
2022-12-22T14:43:21.011Z,2.51
2022-12-22T14:45:51.669Z,1.37
2022-12-22T14:48:32.498Z,2.36
2022-12-22T14:50:59.814Z,1.65
2022-12-22T14:53:49.800Z,2.08
2022-12-22T14:56:17.670Z,1.65
2022-12-22T14:58:46.297Z,1.58
2022-12-22T15:01:17.303Z,1.31
2022-12-22T15:03:46.400Z,1.31
2022-12-22T15:06:28.282Z,0.85
2022-12-22T15:09:13.532Z,1.29
2022-12-22T15:12:14.938Z,1.69
2022-12-22T15:14:42.390Z,1.79
2022-12-22T15:17:21.748Z,1.89
2022-12-22T15:19:48.991Z,1.62
2022-12-22T15:22:15.632Z,1.70
2022-12-22T15:24:42.226Z,1.92
2022-12-22T15:27:08.851Z,2.14
2022-12-22T15:29:35.460Z,1.69
2022-12-22T15:32:02.074Z,1.77
2022-12-22T15:34:31.957Z,1.72
2022-12-22T15:36:58.639Z,1.48
2022-12-22T15:39:25.325Z,1.41
2022-12-22T15:41:51.915Z,1.11
2022-12-22T15:44:18.702Z,1.29
2022-12-22T15:46:52.913Z,1.35
2022-12-22T15:49:22.737Z,0.88
2022-12-22T15:51:56.444Z,1.35
2022-12-22T15:54:26.360Z,1.14
2022-12-22T15:56:54.842Z,1.10
2022-12-22T15:59:24.916Z,0.99
2022-12-22T16:01:56.611Z,0.97
2022-12-22T16:04:27.054Z,1.34
2022-12-22T16:06:54.145Z,0.78
2022-12-22T16:09:25.252Z,0.69
2022-12-22T16:11:52.097Z,1.17
2022-12-22T16:14:20.601Z,0.96
2022-12-22T16:16:47.211Z,1.15
2022-12-22T16:19:16.454Z,1.19
2022-12-22T16:21:47.714Z,1.39
2022-12-22T16:24:27.009Z,1.19
2022-12-22T16:26:54.351Z,0.81
2022-12-22T16:29:20.956Z,1.06
2022-12-22T16:31:47.590Z,1.19
2022-12-22T16:34:14.308Z,0.95
2022-12-22T16:36:41.005Z,0.81
2022-12-22T16:39:07.614Z,0.92
2022-12-22T16:41:34.414Z,0.94
2022-12-22T16:46:46.759Z,0.93
2022-12-22T16:49:22.932Z,1.16
2022-12-22T16:51:53.958Z,1.18
2022-12-22T16:54:20.653Z,1.16
2022-12-22T16:56:47.399Z,1.39
2022-12-22T16:59:14.313Z,0.76
2022-12-22T17:01:55.810Z,0.72
2022-12-22T17:04:30.426Z,0.66
2022-12-22T17:06:59.811Z,1.37
2022-12-22T17:09:42.641Z,0.84
2022-12-22T17:12:17.106Z,1.32
2022-12-22T17:14:44.107Z,0.76
2022-12-22T17:17:18.439Z,0.92
2022-12-22T17:19:45.086Z,0.78
2022-12-22T17:22:22.331Z,0.66
2022-12-22T17:24:51.365Z,0.99
2022-12-22T17:27:23.446Z,1.37
2022-12-22T17:29:50.649Z,0.94
2022-12-22T17:32:20.480Z,0.92
2022-12-22T17:34:47.667Z,0.90
2022-12-22T17:37:21.414Z,1.02
2022-12-22T17:39:50.783Z,0.60
2022-12-22T17:42:22.633Z,0.68
2022-12-22T17:44:50.940Z,0.78
2022-12-22T17:47:23.848Z,0.82
2022-12-22T17:49:55.227Z,1.42
2022-12-22T17:52:23.920Z,0.91
2022-12-22T17:54:52.615Z,1.40
2022-12-22T17:57:23.630Z,1.24
2022-12-22T17:59:50.265Z,1.25
2022-12-22T18:02:19.657Z,1.48
2022-12-22T18:04:47.297Z,1.05
2022-12-22T18:07:17.399Z,1.14
2022-12-22T18:09:45.625Z,0.66
2022-12-22T18:12:21.991Z,0.43
2022-12-22T18:14:49.464Z,1.17
2022-12-22T18:17:35.125Z,1.34
2022-12-22T18:20:02.755Z,1.17
2022-12-22T18:22:30.302Z,0.89
2022-12-22T18:24:57.758Z,0.89
2022-12-22T18:27:24.417Z,0.92
2022-12-22T18:29:51.166Z,0.67
2022-12-22T18:32:26.325Z,1.29
2022-12-22T18:34:54.486Z,1.10
2022-12-22T18:37:21.225Z,1.31
2022-12-22T18:39:47.962Z,0.66
2022-12-22T18:42:22.944Z,0.95
2022-12-22T18:44:50.694Z,1.22
2022-12-22T18:47:17.496Z,0.70
2022-12-22T18:49:44.915Z,0.98
2022-12-22T18:52:17.493Z,0.76
2022-12-22T18:54:44.920Z,0.42
2022-12-22T18:57:17.571Z,0.92
2022-12-22T18:59:45.269Z,1.46
2022-12-22T19:02:19.741Z,1.14
2022-12-22T19:04:47.255Z,1.01
2022-12-22T19:07:22.432Z,1.48
2022-12-22T19:09:49.960Z,1.72
2022-12-22T19:12:19.599Z,1.87
2022-12-22T19:14:50.193Z,2.00
2022-12-22T19:17:22.786Z,2.24
2022-12-22T19:19:49.510Z,2.31
2022-12-22T19:22:16.615Z,2.33
2022-12-22T19:24:43.702Z,2.04
2022-12-22T19:27:25.393Z,1.28
2022-12-22T19:30:03.020Z,1.30
2022-12-22T19:32:39.374Z,1.60
2022-12-22T19:35:16.247Z,1.42
2022-12-22T19:37:42.904Z,1.85
2022-12-22T19:40:12.581Z,2.26
2022-12-22T19:42:40.653Z,2.24
2022-12-22T19:45:21.447Z,2.10
2022-12-22T19:47:49.710Z,2.10
2022-12-22T19:50:27.585Z,2.28
2022-12-22T19:52:56.013Z,2.10
2022-12-22T19:55:25.415Z,1.84
2022-12-22T19:57:52.630Z,2.25
2022-12-22T20:00:25.153Z,2.31
2022-12-22T20:02:54.659Z,1.81
2022-12-22T20:05:24.504Z,1.69
2022-12-22T20:07:53.606Z,1.91
2022-12-22T20:10:21.963Z,1.74
2022-12-22T20:12:51.969Z,1.70
2022-12-22T20:15:21.499Z,1.95
2022-12-22T20:17:50.256Z,1.77
2022-12-22T20:20:36.019Z,1.76
2022-12-22T20:23:17.864Z,1.44
2022-12-22T20:25:49.135Z,1.98
2022-12-22T20:28:19.850Z,1.94
2022-12-22T20:30:48.030Z,1.89
2022-12-22T20:33:17.177Z,1.95
2022-12-22T20:35:45.735Z,1.29
2022-12-22T20:38:18.238Z,1.26
2022-12-22T20:40:46.625Z,1.86
2022-12-22T20:43:20.092Z,1.62
2022-12-22T20:45:50.852Z,1.62
2022-12-22T20:48:39.260Z,1.36
2022-12-22T20:51:10.205Z,1.85
2022-12-22T20:53:37.144Z,1.89
2022-12-22T20:56:04.229Z,1.94
2022-12-22T20:58:34.520Z,1.76
2022-12-22T21:01:02.267Z,1.65
2022-12-22T21:03:29.407Z,1.79
2022-12-22T21:05:56.443Z,2.05
2022-12-22T21:08:26.124Z,2.34
2022-12-22T21:10:54.580Z,2.33
2022-12-22T21:13:24.216Z,2.30
2022-12-22T21:15:51.651Z,2.16
2022-12-22T21:18:21.845Z,2.32
2022-12-22T21:20:50.876Z,2.69
2022-12-22T21:23:18.314Z,2.76
2022-12-22T21:25:49.387Z,2.46
2022-12-22T21:28:32.141Z,3.04
2022-12-22T21:30:59.409Z,2.16
2022-12-22T21:33:26.857Z,2.27
2022-12-22T21:35:55.595Z,2.59
2022-12-22T21:38:25.675Z,2.61
2022-12-22T21:40:52.629Z,2.57
2022-12-22T21:43:19.539Z,3.23
2022-12-22T21:45:49.626Z,2.95
2022-12-22T21:48:19.104Z,2.29
2022-12-22T21:50:47.991Z,2.35
2022-12-22T21:53:21.506Z,3.10
2022-12-22T21:55:49.127Z,2.82
2022-12-22T21:58:16.186Z,2.45
2022-12-22T22:00:48.183Z,2.34
2022-12-22T22:03:16.030Z,3.19
2022-12-22T22:05:43.443Z,3.02
2022-12-22T22:08:12.357Z,2.94
2022-12-22T22:10:42.109Z,2.72
2022-12-22T22:13:13.853Z,2.61
2022-12-22T22:15:40.895Z,2.67
2022-12-22T22:18:09.277Z,3.09
2022-12-22T22:20:36.134Z,2.16
2022-12-22T22:23:03.003Z,1.74
2022-12-22T22:25:29.848Z,1.94
2022-12-22T22:27:58.832Z,1.79
2022-12-22T22:30:26.476Z,2.41
2022-12-22T22:32:53.989Z,2.57
2022-12-22T22:35:21.980Z,2.33
2022-12-22T22:37:50.013Z,1.80
2022-12-22T22:40:19.679Z,1.79
2022-12-22T22:42:46.775Z,2.19
2022-12-22T22:45:16.587Z,2.18
2022-12-22T22:47:43.470Z,2.18
2022-12-22T22:50:10.418Z,2.33
2022-12-22T22:52:37.527Z,2.32
2022-12-22T22:55:04.642Z,2.76
2022-12-22T22:57:31.633Z,3.08
2022-12-22T22:59:58.564Z,2.83
2022-12-22T23:02:25.559Z,2.53
2022-12-22T23:04:52.828Z,2.96
2022-12-22T23:07:19.741Z,2.51
2022-12-22T23:09:46.578Z,2.82
2022-12-22T23:12:13.454Z,2.75
2022-12-22T23:14:40.447Z,3.11
2022-12-22T23:17:07.321Z,2.50
2022-12-22T23:19:34.461Z,2.94
2022-12-22T23:22:01.385Z,2.33
2022-12-22T23:24:28.373Z,2.44
2022-12-22T23:26:55.315Z,2.74
2022-12-22T23:29:22.186Z,2.70
2022-12-22T23:31:49.192Z,2.51
2022-12-22T23:34:16.138Z,2.38
2022-12-22T23:36:43.044Z,2.57
2022-12-22T23:39:11.423Z,2.89
2022-12-22T23:41:38.323Z,2.84
2022-12-22T23:44:05.226Z,2.80
2022-12-22T23:46:32.139Z,2.89
2022-12-22T23:49:00.042Z,2.93
2022-12-22T23:51:28.869Z,3.28
2022-12-22T23:53:56.977Z,3.26
2022-12-22T23:56:23.965Z,2.99
2022-12-22T23:58:54.547Z,3.31
